Camarillo, CA

12:14 AM PDT on August 20, 2014 (GMT -0700)
Temple and Ponderosa | Change Station
CLOSE
Current Station
Personal Weather Station
Location: Camarillo, CA
Elevation: 174 ft
Nearby Weather Stations

Elev 174 ft 34.23 °N, 119.03 °W | Updated 11 seconds ago

Overcast
Overcast
67.5 °F
Feels Like 67.5 °F
N
0.0
Wind Variable Wind from North
Gusts 2.0 mph

Today
High -- | Low -- °F
--% Chance of Precip.
Yesterday
High -- | Low -- °F
Precip. -- in
6:21 AM 7:37 PM
Waning Crescent, 24% visible
Pressure 29.89 in
Visibility 10.0 miles
Clouds Overcast 1900 ft
Dew Point 62 °F
Humidity 82%
Rainfall 0.00 in
Snow Depth Not available.
UV 0 out of 12
Pollen 7.80 out of 12
Ozone Good
PM2.5 Good
Flu Activity Not available.
METAR KCMA 200655Z 28006KT 10SM OVC019 21/15 A2987 RMK AO2 SLP122 T02060150 $

More Conditions Fewer Conditions

Pressure 29.89 in
Visibility 10.0 miles
Clouds Overcast 1900 ft
Dew Point 62 °F
Humidity 82%
Rainfall 0.00 in
Snow Depth Not available.
UV 0 out of 12
Pollen 7.80 out of 12
Ozone Good
PM2.5 Good
Flu Activity Not available.
METAR KCMA 200655Z 28006KT 10SM OVC019 21/15 A2987 RMK AO2 SLP122 T02060150 $

More Conditions Fewer Conditions

10-Day Weather Forecast

Almanac

Astronomy

Aug. 20, 2014 Rise Set
Actual Time 6:21 AM PDT 7:37 PM PDT
Civil Twilight 5:54 AM PDT 8:03 PM PDT
Nautical Twilight 5:23 AM PDT 8:34 PM PDT
Astronomical Twilight 4:50 AM PDT 9:07 PM PDT
Moon 2:09 AM PDT 4:21 PM PDT
Length of Visible Light 14h 08m
Length of Day
13h 16m
Tomorrow will be 1m 56s shorter.
Waning Crescent, 24% of the Moon is Illuminated
Today
Waning Crescent
Aug 25
New
Sep 2
First Quarter
Sep 8
Full
Sep 15
Last Quarter

Today's Extremes

State Highs State Lows

Community

WunderPhotos

Upload Photos

1,745,592 photos uploaded!

Nearby

Air Quality

  Air Quality AQ Index Pollutant
Yesterday Good
PM2.5
Yesterday Good
OZONE
Current Good
PM2.5
Current Good
OZONE
Tuesday Good
OZONE
Tuesday Good
PM10
Wednesday Good
OZONE
Wednesday Good
PM10
Thursday Good
PM10
Thursday Good
OZONE
Friday Good
PM10
Friday Good
OZONE
Saturday Good
PM10
Saturday Good
OZONE

Snow Depth

Station Depth Elevation
Leavitt Lake 0 in 9400 ft
Leavitt Meadows 1 in 7200 ft
Blue Lakes 0 in 8000 ft
Monitor Pass 0 in 8350 ft
Forestdale Creek 0 in 8029 ft

Earthquake Activity

City Distance Mag. Time & Date
Malibu Beach, California 25 miles 3.4 10:03 AM PDT
2014-08-15
Kettleman City, California 138 miles 2.9 11:32 PM PDT
2014-08-14
Ojai, California 26 miles 2.6 8:43 PM PDT
2014-08-13
Minimum magnitude displayed is 2.5.

Coastal Water Temperatures

Place Temperature
Santa Monica Pier 70.0 °F
Los Angeles, CA 66.9 °F
Port San Luis, CA 59.0 °F

Nearby Weather Stations